Time;durP1;ratioP1;P1;durP2;ratioP2;P2;SDS_P1;SDS_P2;PMS_P1;PMS_P2;Temp;Humidity;BMP_temperature;BMP_pressure;BME280_temperature;BME280_humidity;BME280_pressure;Samples;Min_cycle;Max_cycle;Signal;HPM_P1;HPM_P2
2021/12/22 00:00:14;;;;;;;40.15;16.95;;;;;;;-4.97;93.87;99613.44;5045221;28;20025;-68
2021/12/22 00:02:46;;;;;;;35.60;16.77;;;;;;;-4.94;94.27;99613.63;5045051;28;20067;-68
2021/12/22 00:05:14;;;;;;;35.45;16.15;;;;;;;-4.84;93.37;99615.03;5045063;28;20217;-68
2021/12/22 00:07:40;;;;;;;26.65;13.52;;;;;;;-4.89;93.06;99609.63;5045122;28;20021;-68
2021/12/22 00:10:05;;;;;;;25.05;12.20;;;;;;;-4.89;92.71;99617.34;5045099;28;20316;-68
2021/12/22 00:12:31;;;;;;;22.15;11.65;;;;;;;-4.85;92.96;99621.84;5031558;28;20081;-67
2021/12/22 00:14:56;;;;;;;24.92;12.10;;;;;;;-5.16;93.81;99608.06;5025725;28;20025;-68
2021/12/22 00:17:22;;;;;;;24.55;11.80;;;;;;;-5.07;93.92;99602.56;5025650;28;20072;-68
2021/12/22 00:19:47;;;;;;;28.92;11.88;;;;;;;-5.13;93.56;99603.09;5031526;28;20108;-68
2021/12/22 00:22:13;;;;;;;26.63;12.82;;;;;;;-5.08;93.81;99605.94;5036439;28;20321;-68
2021/12/22 00:24:40;;;;;;;24.63;11.68;;;;;;;-5.06;94.33;99615.47;5040721;28;20387;-68
2021/12/22 00:27:06;;;;;;;27.63;11.90;;;;;;;-5.01;93.90;99608.94;5032839;28;20310;-68
2021/12/22 00:29:31;;;;;;;25.02;12.02;;;;;;;-4.96;93.53;99617.81;5044483;28;20035;-68
2021/12/22 00:32:08;;;;;;;22.17;10.45;;;;;;;-4.97;93.24;99621.13;5044741;28;20055;-68
2021/12/22 00:34:35;;;;;;;19.95;10.93;;;;;;;-4.96;93.01;99622.94;5035072;28;20037;-68
2021/12/22 00:37:00;;;;;;;23.38;10.23;;;;;;;-5.01;92.75;99619.22;5025433;28;20341;-68
2021/12/22 00:39:25;;;;;;;21.67;11.18;;;;;;;-5.03;92.75;99614.78;5026426;28;20022;-68
2021/12/22 00:41:51;;;;;;;20.08;9.10;;;;;;;-5.22;92.46;99602.59;5025447;28;20037;-68
2021/12/22 00:44:16;;;;;;;23.15;11.10;;;;;;;-5.22;93.23;99607.72;5025101;28;20045;-68
2021/12/22 00:46:42;;;;;;;20.50;9.35;;;;;;;-5.08;93.47;99611.97;5025171;28;20213;-68
2021/12/22 00:49:07;;;;;;;20.65;9.57;;;;;;;-5.04;92.73;99603.63;5036963;28;20022;-68
2021/12/22 00:51:33;;;;;;;25.60;9.52;;;;;;;-5.16;91.76;99596.94;5029452;28;20026;-68
2021/12/22 00:53:58;;;;;;;18.63;9.80;;;;;;;-5.32;92.03;99595.16;5025033;28;20064;-68
2021/12/22 00:56:23;;;;;;;19.83;9.73;;;;;;;-5.16;92.00;99602.94;5029420;28;20096;-68
2021/12/22 00:58:49;;;;;;;18.80;9.60;;;;;;;-5.23;91.49;99595.69;5036598;28;20252;-68
2021/12/22 01:01:14;;;;;;;25.25;9.70;;;;;;;-5.32;91.69;99594.31;5024692;28;20076;-68
2021/12/22 01:03:40;;;;;;;20.65;9.63;;;;;;;-5.41;91.82;99599.75;5024759;28;20025;-68
2021/12/22 01:06:05;;;;;;;27.30;10.05;;;;;;;-5.32;92.88;99600.28;5024835;28;20045;-67
2021/12/22 01:08:31;;;;;;;20.88;9.20;;;;;;;-5.31;91.97;99596.06;5025025;28;20018;-68
2021/12/22 01:10:57;;;;;;;18.50;8.65;;;;;;;-5.42;91.89;99613.38;5024962;28;20318;-68
2021/12/22 01:13:22;;;;;;;18.00;8.98;;;;;;;-5.37;91.60;99606.84;5032574;28;20040;-68
2021/12/22 01:15:48;;;;;;;15.65;8.45;;;;;;;-5.43;91.40;99600.47;5035125;28;20343;-68
2021/12/22 01:18:17;;;;;;;26.85;10.40;;;;;;;-5.59;92.45;99600.38;5042317;28;20081;-68
2021/12/22 01:23:37;;;;;;;21.45;10.32;;;;;;;-5.37;92.01;99606.84;5043722;28;20121;-68
2021/12/22 01:26:04;;;;;;;19.55;9.73;;;;;;;-5.44;91.86;99604.72;5043713;28;20021;-68
2021/12/22 01:28:30;;;;;;;20.60;9.23;;;;;;;-5.41;92.07;99612.59;5043737;28;20017;-68
2021/12/22 01:31:01;;;;;;;17.85;9.45;;;;;;;-5.50;91.39;99614.63;5043580;28;20217;-68
2021/12/22 01:33:27;;;;;;;20.13;9.23;;;;;;;-5.50;91.91;99617.22;5043597;28;20017;-68
2021/12/22 01:35:52;;;;;;;17.55;8.63;;;;;;;-5.61;91.21;99610.53;5043549;28;20027;-68
2021/12/22 01:38:18;;;;;;;22.90;9.27;;;;;;;-5.56;91.50;99616.84;5044021;28;20029;-68
2021/12/22 01:40:45;;;;;;;29.83;10.25;;;;;;;-5.62;92.06;99619.03;5043986;28;20052;-68
2021/12/22 01:43:14;;;;;;;21.80;10.45;;;;;;;-5.57;92.30;99627.88;5043985;28;20031;-68
2021/12/22 01:51:05;;;;;;;19.42;9.18;;;;;;;-5.52;92.11;99631.59;5024244;28;20348;-68
2021/12/22 01:53:46;;;;;;;23.10;9.07;;;;;;;-5.66;92.44;99627.31;5024251;28;20029;-68
2021/12/22 01:56:26;;;;;;;19.03;9.63;;;;;;;-5.75;92.67;99642.19;5024813;28;20332;-68
2021/12/22 01:58:56;;;;;;;18.23;8.70;;;;;;;-5.73;92.66;99629.47;5024414;28;20056;-68
2021/12/22 02:01:22;;;;;;;20.38;9.07;;;;;;;-5.67;93.60;99638.38;5024037;28;20028;-68
2021/12/22 02:03:51;;;;;;;17.38;9.50;;;;;;;-5.65;93.72;99631.69;5030608;28;20088;-68
2021/12/22 02:06:18;;;;;;;40.28;18.75;;;;;;;-5.67;93.84;99632.41;5042952;28;20089;-68
2021/12/22 02:08:45;;;;;;;40.83;20.90;;;;;;;-5.67;93.37;99625.56;5043228;28;20066;-68
2021/12/22 02:11:16;;;;;;;46.35;19.45;;;;;;;-5.82;92.35;99614.44;5042900;28;20031;-67
2021/12/22 02:13:45;;;;;;;38.85;19.25;;;;;;;-5.80;92.35;99615.38;5043087;28;20089;-67
2021/12/22 02:16:14;;;;;;;39.85;15.95;;;;;;;-5.81;92.20;99620.47;5028191;28;20029;-67
2021/12/22 02:18:49;;;;;;;34.20;15.77;;;;;;;-5.78;91.41;99611.25;5027772;28;20353;-67
2021/12/22 02:21:16;;;;;;;33.63;14.90;;;;;;;-5.86;91.60;99606.50;5027928;28;20033;-67
2021/12/22 02:23:42;;;;;;;37.78;16.60;;;;;;;-5.88;91.51;99603.84;5028041;28;20032;-67
2021/12/22 02:26:19;;;;;;;36.50;16.80;;;;;;;-5.87;92.10;99605.59;5032805;28;20053;-67
2021/12/22 02:28:48;;;;;;;34.70;16.13;;;;;;;-5.94;91.75;99603.47;5046798;28;20032;-67
2021/12/22 02:31:18;;;;;;;41.22;17.48;;;;;;;-5.96;91.61;99599.91;5046942;28;20014;-67
2021/12/22 02:33:47;;;;;;;45.47;20.08;;;;;;;-5.86;91.74;99606.50;5046692;28;20014;-67
2021/12/22 02:38:51;;;;;;;40.20;19.08;;;;;;;-5.81;90.79;99598.25;5047168;28;20075;-67
2021/12/22 02:41:18;;;;;;;55.05;21.67;;;;;;;-5.91;90.47;99587.38;5043462;28;20021;-68
2021/12/22 02:43:47;;;;;;;51.22;21.75;;;;;;;-5.96;90.55;99584.53;5027339;28;20036;-68
2021/12/22 02:46:15;;;;;;;53.95;23.85;;;;;;;-6.02;90.69;99589.31;5027683;28;20051;-68
2021/12/22 02:48:43;;;;;;;50.00;22.73;;;;;;;-5.92;90.59;99586.50;5032833;28;20092;-68
2021/12/22 02:51:08;;;;;;;53.50;22.83;;;;;;;-5.89;91.13;99584.13;5046043;28;20021;-68
2021/12/22 02:53:42;;;;;;;43.13;19.88;;;;;;;-5.96;90.80;99581.09;5046532;28;20018;-68
2021/12/22 02:58:59;;;;;;;49.88;23.67;;;;;;;-6.20;92.03;99577.97;5046770;28;20059;-68
2021/12/22 03:04:19;;;;;;;51.30;20.35;;;;;;;-6.15;92.91;99571.44;5045994;28;20455;-67
2021/12/22 03:09:28;;;;;;;34.45;15.00;;;;;;;-6.04;92.36;99564.38;5046624;28;20108;-67
2021/12/22 03:11:56;;;;;;;31.60;16.17;;;;;;;-5.99;91.76;99574.13;5045955;28;20123;-68
2021/12/22 03:14:22;;;;;;;36.30;16.52;;;;;;;-6.07;91.43;99559.97;5045886;28;20037;-68
2021/12/22 03:16:48;;;;;;;32.30;15.73;;;;;;;-6.10;91.01;99557.22;5046348;28;20017;-68
2021/12/22 03:19:18;;;;;;;37.75;17.20;;;;;;;-6.26;90.82;99551.09;5045879;28;20068;-68
2021/12/22 03:21:46;;;;;;;40.38;16.75;;;;;;;-6.27;91.52;99560.44;5045981;28;20321;-68
2021/12/22 03:24:12;;;;;;;34.88;16.60;;;;;;;-6.11;91.00;99563.13;5031107;28;20045;-68
2021/12/22 03:26:42;;;;;;;35.80;15.95;;;;;;;-6.18;90.23;99560.09;5026929;28;20072;-68
2021/12/22 03:29:13;;;;;;;40.88;17.52;;;;;;;-6.17;89.87;99542.25;5026858;28;20321;-68
2021/12/22 03:31:39;;;;;;;33.50;16.30;;;;;;;-6.19;90.21;99545.53;5026659;28;20018;-68
2021/12/22 03:34:06;;;;;;;37.85;17.00;;;;;;;-6.22;89.78;99541.13;5033732;28;20147;-68
2021/12/22 03:36:32;;;;;;;33.40;15.90;;;;;;;-6.31;90.37;99532.88;5032678;28;20021;-68
2021/12/22 03:38:58;;;;;;;33.58;15.48;;;;;;;-6.26;91.15;99541.75;5029294;28;20389;-67
2021/12/22 03:41:23;;;;;;;29.83;15.63;;;;;;;-6.29;91.01;99546.69;5026379;28;20048;-67
2021/12/22 03:43:49;;;;;;;31.10;13.55;;;;;;;-6.24;91.01;99555.50;5039537;28;20025;-67
2021/12/22 03:46:14;;;;;;;36.10;17.17;;;;;;;-6.14;91.54;99560.38;5045294;28;20025;-67
2021/12/22 03:48:40;;;;;;;30.88;14.57;;;;;;;-6.14;91.32;99568.06;5045492;28;20013;-67
2021/12/22 03:51:05;;;;;;;36.97;16.63;;;;;;;-6.12;90.39;99563.94;5030161;28;20092;-67
2021/12/22 03:53:31;;;;;;;40.47;15.52;;;;;;;-6.24;90.03;99550.38;5026431;28;20432;-67
2021/12/22 03:55:56;;;;;;;39.78;15.75;;;;;;;-6.55;90.59;99540.75;5026113;28;20310;-67
2021/12/22 03:58:22;;;;;;;36.65;16.27;;;;;;;-6.62;91.11;99534.38;5026277;28;20026;-67
2021/12/22 04:00:54;;;;;;;28.92;13.85;;;;;;;-6.55;91.47;99540.75;5034176;28;20021;-67
2021/12/22 04:03:22;;;;;;;28.35;14.65;;;;;;;-6.47;91.91;99544.66;5026209;28;20318;-67
2021/12/22 04:05:48;;;;;;;31.80;14.55;;;;;;;-6.41;91.67;99545.94;5025876;28;20025;-67
2021/12/22 04:08:17;;;;;;;29.45;15.13;;;;;;;-6.36;91.83;99544.50;5025809;28;20018;-67
2021/12/22 04:10:47;;;;;;;29.38;14.02;;;;;;;-6.23;91.59;99549.59;5026117;28;20022;-67
2021/12/22 04:13:13;;;;;;;31.75;14.27;;;;;;;-6.29;90.87;99541.56;5037501;28;20017;-67
2021/12/22 04:15:39;;;;;;;32.80;13.65;;;;;;;-6.37;90.94;99542.75;5038272;28;20280;-67
2021/12/22 04:18:05;;;;;;;29.88;13.60;;;;;;;-6.33;90.66;99542.13;5028277;28;20024;-67
2021/12/22 04:20:30;;;;;;;32.45;13.32;;;;;;;-6.36;91.19;99544.50;5039552;28;20033;-67
2021/12/22 04:22:56;;;;;;;30.63;14.57;;;;;;;-6.34;90.98;99553.19;5044888;28;20052;-67
2021/12/22 04:25:22;;;;;;;31.42;14.15;;;;;;;-6.22;91.20;99553.94;5041173;28;20017;-67
2021/12/22 04:27:56;;;;;;;30.88;14.55;;;;;;;-6.14;90.93;99562.94;5033585;28;20044;-67
2021/12/22 04:30:23;;;;;;;33.28;12.95;;;;;;;-6.15;90.80;99561.19;5025448;28;20072;-67
2021/12/22 04:32:49;;;;;;;29.58;13.30;;;;;;;-6.21;90.94;99563.38;5036624;28;20340;-67
2021/12/22 04:35:15;;;;;;;25.33;13.48;;;;;;;-6.66;89.78;99552.91;5042850;28;20017;-67
2021/12/22 04:37:41;;;;;;;23.27;12.00;;;;;;;-6.69;91.10;99552.72;5044356;28;20025;-67
2021/12/22 04:40:07;;;;;;;31.08;13.57;;;;;;;-6.87;91.42;99541.31;5044794;28;20182;-67
2021/12/22 04:42:32;;;;;;;27.10;12.50;;;;;;;-6.67;92.13;99548.59;5044461;28;20203;-67
2021/12/22 04:45:00;;;;;;;34.35;15.02;;;;;;;-6.57;92.92;99548.34;5042496;28;20029;-67
2021/12/22 04:47:26;;;;;;;31.30;13.02;;;;;;;-6.51;92.45;99543.59;5025105;28;20030;-67
2021/12/22 04:49:51;;;;;;;33.40;13.90;;;;;;;-6.39;92.42;99543.47;5025088;28;20068;-67
2021/12/22 04:52:20;;;;;;;28.75;13.10;;;;;;;-6.41;92.54;99540.81;5025430;28;20025;-67
2021/12/22 04:55:02;;;;;;;31.95;13.48;;;;;;;-6.42;92.34;99549.28;5025001;28;20036;-67
2021/12/22 04:57:27;;;;;;;24.52;12.43;;;;;;;-6.30;92.33;99555.13;5025387;28;20021;-67
2021/12/22 04:59:53;;;;;;;27.67;12.90;;;;;;;-6.37;91.95;99542.75;5034189;28;20021;-67
2021/12/22 05:02:18;;;;;;;27.25;13.27;;;;;;;-6.41;90.90;99545.94;5044351;28;20021;-67
2021/12/22 05:04:43;;;;;;;26.15;14.10;;;;;;;-6.46;91.14;99539.63;5044459;28;20037;-67
2021/12/22 05:07:09;;;;;;;26.63;12.50;;;;;;;-6.47;90.30;99534.41;5043420;28;20105;-67
2021/12/22 05:09:34;;;;;;;23.17;12.88;;;;;;;-6.40;90.63;99546.81;5035476;28;20368;-67
2021/12/22 05:12:00;;;;;;;24.48;12.00;;;;;;;-6.54;89.79;99548.53;5023861;28;20029;-67
2021/12/22 05:14:25;;;;;;;28.83;12.52;;;;;;;-6.46;90.17;99546.44;5023756;28;20048;-67
2021/12/22 05:16:53;;;;;;;29.92;11.15;;;;;;;-6.41;90.02;99540.81;5023731;28;20021;-67
2021/12/22 05:19:18;;;;;;;25.77;12.32;;;;;;;-6.81;89.95;99537.47;5032456;28;20049;-67
2021/12/22 05:21:45;;;;;;;22.95;12.35;;;;;;;-7.06;90.70;99544.41;5042451;28;20018;-67
2021/12/22 05:24:11;;;;;;;24.17;12.15;;;;;;;-6.84;91.15;99554.31;5033105;28;20113;-67
2021/12/22 05:26:42;;;;;;;27.85;12.75;;;;;;;-6.84;90.92;99551.75;5024765;28;20029;-65
2021/12/22 05:29:08;;;;;;;24.23;11.55;;;;;;;-6.94;90.32;99555.44;5028003;28;20129;-68
2021/12/22 05:31:34;;;;;;;24.48;11.95;;;;;;;-6.88;91.32;99549.81;5035992;28;20369;-67
2021/12/22 05:33:59;;;;;;;26.23;12.60;;;;;;;-6.73;91.60;99566.13;5042806;28;20017;-67
2021/12/22 05:36:25;;;;;;;23.77;11.63;;;;;;;-6.74;91.16;99556.69;5043147;28;20021;-67
2021/12/22 05:38:50;;;;;;;24.50;11.27;;;;;;;-6.67;91.01;99556.25;5031917;28;20026;-67
2021/12/22 05:41:16;;;;;;;22.67;12.35;;;;;;;-6.74;91.11;99554.13;5024262;28;20379;-67
2021/12/22 05:43:41;;;;;;;28.25;13.45;;;;;;;-6.71;92.08;99555.97;5024160;28;20026;-67
2021/12/22 05:46:06;;;;;;;31.95;12.27;;;;;;;-6.75;92.17;99554.03;5023775;28;20022;-67
2021/12/22 05:48:32;;;;;;;23.77;11.93;;;;;;;-6.71;91.93;99554.28;5023865;28;20080;-67
2021/12/22 05:50:58;;;;;;;23.08;11.60;;;;;;;-6.63;92.28;99553.09;5024202;28;20026;-67
2021/12/22 05:53:25;;;;;;;19.00;10.68;;;;;;;-6.63;91.05;99547.97;5024378;28;20097;-67
2021/12/22 05:55:52;;;;;;;24.73;11.50;;;;;;;-6.71;91.13;99548.28;5024091;28;20273;-67
2021/12/22 05:58:17;;;;;;;30.27;12.15;;;;;;;-6.68;91.00;99559.59;5024053;28;20026;-67
2021/12/22 06:00:43;;;;;;;31.15;12.60;;;;;;;-6.63;91.05;99558.22;5022968;28;20136;-67
2021/12/22 06:03:10;;;;;;;26.77;11.32;;;;;;;-6.73;91.02;99555.88;5023052;28;20025;-67
2021/12/22 06:05:36;;;;;;;22.20;11.75;;;;;;;-6.70;90.69;99553.50;5023004;28;20052;-67
2021/12/22 06:08:02;;;;;;;22.92;11.98;;;;;;;-6.69;90.25;99560.38;5023088;28;20032;-67
2021/12/22 06:10:27;;;;;;;25.23;11.60;;;;;;;-6.80;90.06;99548.63;5023080;28;20017;-67
2021/12/22 06:12:53;;;;;;;25.08;11.00;;;;;;;-6.89;90.02;99564.25;5023040;28;20021;-67
2021/12/22 06:15:18;;;;;;;22.75;11.38;;;;;;;-6.80;91.88;99558.84;5022643;28;20217;-67
2021/12/22 06:17:45;;;;;;;21.23;10.82;;;;;;;-6.87;91.23;99561.78;5022990;28;20028;-67
2021/12/22 06:20:11;;;;;;;26.50;11.77;;;;;;;-6.83;92.17;99564.66;5022823;28;20099;-67
2021/12/22 06:22:36;;;;;;;28.73;13.23;;;;;;;-6.70;92.67;99574.00;5022942;28;20026;-67
2021/12/22 06:25:02;;;;;;;26.85;12.48;;;;;;;-6.64;92.50;99576.03;5023120;28;20034;-67
2021/12/22 06:27:28;;;;;;;21.67;11.70;;;;;;;-6.59;91.95;99583.19;5022511;28;20257;-67
2021/12/22 06:29:53;;;;;;;23.75;12.50;;;;;;;-6.56;91.20;99583.38;5022900;28;20030;-67
2021/12/22 06:32:19;;;;;;;26.95;11.85;;;;;;;-6.54;90.93;99579.25;5022833;28;20025;-67
2021/12/22 06:34:44;;;;;;;21.67;10.80;;;;;;;-6.57;90.26;99584.19;5022818;28;20072;-67
2021/12/22 06:37:11;;;;;;;23.35;10.48;;;;;;;-6.58;90.81;99592.69;5022811;28;20060;-67
2021/12/22 06:39:38;;;;;;;25.10;11.07;;;;;;;-6.49;90.45;99588.09;5022541;28;20309;-67
2021/12/22 06:42:07;;;;;;;20.27;11.10;;;;;;;-6.66;90.32;99588.75;5022517;28;20057;-67
2021/12/22 06:44:32;;;;;;;25.40;10.95;;;;;;;-6.74;90.34;99594.19;5032422;28;20089;-67
2021/12/22 06:46:58;;;;;;;23.40;10.70;;;;;;;-6.66;90.50;99598.97;5042480;28;20233;-67
2021/12/22 06:49:24;;;;;;;24.20;11.43;;;;;;;-6.54;90.02;99604.88;5042460;28;20085;-67
2021/12/22 06:51:51;;;;;;;22.35;10.70;;;;;;;-6.74;89.29;99595.06;5042678;28;20017;-67
2021/12/22 06:54:16;;;;;;;24.35;11.70;;;;;;;-7.15;89.80;99594.13;5042218;28;20017;-67
2021/12/22 06:56:42;;;;;;;22.40;12.13;;;;;;;-7.27;90.96;99585.66;5042391;28;20025;-67
2021/12/22 06:59:07;;;;;;;42.85;23.55;;;;;;;-7.11;92.10;99601.19;5044770;28;20021;-67
2021/12/22 07:01:35;;;;;;;30.98;16.27;;;;;;;-7.00;92.22;99610.44;5045976;28;20064;-67
2021/12/22 07:04:00;;;;;;;35.88;14.73;;;;;;;-6.83;91.71;99614.97;5045797;28;20371;-67
2021/12/22 07:06:26;;;;;;;37.15;16.02;;;;;;;-6.78;90.78;99604.22;5045490;28;20045;-67
2021/12/22 07:08:52;;;;;;;31.65;16.42;;;;;;;-6.71;90.42;99610.59;5045709;28;20202;-67
2021/12/22 07:11:17;;;;;;;28.40;13.93;;;;;;;-6.90;89.80;99602.53;5045828;28;20028;-67
2021/12/22 07:13:43;;;;;;;34.35;14.15;;;;;;;-6.98;90.24;99598.63;5045744;28;20025;-67
2021/12/22 07:16:09;;;;;;;30.73;14.00;;;;;;;-6.97;89.61;99596.16;5045716;28;20041;-67
2021/12/22 07:18:34;;;;;;;38.53;17.35;;;;;;;-7.17;89.82;99585.44;5045468;28;20049;-67
2021/12/22 07:21:03;;;;;;;49.35;20.02;;;;;;;-7.13;90.48;99587.41;5042010;28;20032;-67
2021/12/22 07:23:28;;;;;;;67.15;28.30;;;;;;;-7.03;90.22;99589.75;5054777;28;20238;-67
2021/12/22 07:25:54;;;;;;;89.63;34.17;;;;;;;-7.08;90.47;99581.78;5056344;28;20047;-67
2021/12/22 07:28:19;;;;;;;78.28;32.42;;;;;;;-6.93;90.10;99587.03;5065473;28;20324;-67
2021/12/22 07:30:45;;;;;;;67.57;29.75;;;;;;;-6.83;90.08;99586.81;5049924;28;20202;-67
2021/12/22 07:33:11;;;;;;;55.45;24.52;;;;;;;-6.82;89.33;99580.91;5045019;28;20089;-67
2021/12/22 07:35:56;;;;;;;36.45;15.43;;;;;;;-6.74;89.08;99576.25;5045623;28;20305;-67
2021/12/22 07:38:24;;;;;;;32.15;14.65;;;;;;;-6.71;88.60;99582.44;5039656;28;20322;-67
2021/12/22 07:40:55;;;;;;;34.17;14.20;;;;;;;-6.65;88.41;99572.56;5035833;28;20029;-67
2021/12/22 07:43:20;;;;;;;33.20;15.05;;;;;;;-6.57;88.35;99579.06;5030652;28;20337;-67
2021/12/22 07:45:46;;;;;;;29.42;15.30;;;;;;;-6.62;88.75;99580.44;5024843;28;20048;-67
2021/12/22 07:48:12;;;;;;;33.35;14.93;;;;;;;-6.57;88.68;99584.19;5025306;28;20123;-67
2021/12/22 07:50:37;;;;;;;32.20;14.05;;;;;;;-6.57;88.97;99584.19;5025279;28;20149;-67
2021/12/22 07:53:03;;;;;;;30.20;14.20;;;;;;;-6.46;88.14;99582.28;5025241;28;20258;-67
2021/12/22 07:55:28;;;;;;;38.05;15.65;;;;;;;-6.39;88.32;99579.31;5041584;28;20084;-67
2021/12/22 07:57:54;;;;;;;25.20;13.18;;;;;;;-6.37;88.41;99581.16;5064949;28;20083;-67
2021/12/22 08:00:19;;;;;;;27.30;13.00;;;;;;;-6.29;88.75;99585.09;5050101;28;20037;-67
2021/12/22 08:02:45;;;;;;;28.80;14.15;;;;;;;-6.34;89.18;99589.03;5032893;28;20057;-67
2021/12/22 08:05:10;;;;;;;29.58;15.32;;;;;;;-6.29;88.46;99587.66;5033544;28;20018;-67
2021/12/22 08:07:36;;;;;;;28.23;14.52;;;;;;;-6.27;88.99;99598.84;5036080;28;20029;-67
2021/12/22 08:10:04;;;;;;;30.30;14.63;;;;;;;-6.07;89.18;99600.97;5041191;28;20021;-67
2021/12/22 08:12:29;;;;;;;32.80;15.80;;;;;;;-5.95;88.49;99606.81;5030387;28;20233;-67
2021/12/22 08:14:54;;;;;;;29.58;14.73;;;;;;;-5.93;88.06;99600.09;5024794;28;20022;-67
2021/12/22 08:17:21;;;;;;;34.00;16.15;;;;;;;-5.88;88.03;99602.94;5024706;28;20234;-67
2021/12/22 08:19:47;;;;;;;30.83;14.77;;;;;;;-6.00;88.78;99603.09;5024519;28;20149;-66
2021/12/22 08:22:12;;;;;;;35.08;15.85;;;;;;;-5.95;89.61;99617.06;5024919;28;20083;-67
2021/12/22 08:24:38;;;;;;;29.60;14.30;;;;;;;-5.88;89.74;99619.22;5024464;28;20302;-67
2021/12/22 08:27:04;;;;;;;31.27;14.27;;;;;;;-5.86;90.38;99617.63;5023430;28;20048;-66
2021/12/22 08:29:29;;;;;;;28.02;13.93;;;;;;;-5.71;90.03;99627.84;5039082;28;20025;-66
2021/12/22 08:31:55;;;;;;;58.47;27.48;;;;;;;-6.17;88.82;99608.88;5064551;28;20327;-66
2021/12/22 08:34:28;;;;;;;65.95;32.00;;;;;;;-6.20;88.89;99603.59;5064189;28;20325;-66
2021/12/22 08:39:38;;;;;;;78.45;37.33;;;;;;;-6.29;89.99;99603.03;5055237;28;20029;-66
2021/12/22 08:42:04;;;;;;;110.60;51.63;;;;;;;-6.20;89.58;99606.16;5035119;28;20013;-66
2021/12/22 08:44:33;;;;;;;84.63;40.13;;;;;;;-5.94;90.35;99616.28;5041389;28;20390;-66
2021/12/22 08:46:59;;;;;;;77.45;37.13;;;;;;;-5.65;90.24;99626.56;5037852;28;20062;-66
2021/12/22 08:49:24;;;;;;;65.45;28.73;;;;;;;-5.37;89.39;99624.81;5037082;28;20045;-66
2021/12/22 08:51:51;;;;;;;52.05;26.85;;;;;;;-5.15;89.35;99630.38;5041598;28;20059;-66
2021/12/22 08:54:17;;;;;;;44.97;21.83;;;;;;;-4.69;89.40;99634.72;5043860;28;20024;-66
2021/12/22 08:56:43;;;;;;;41.55;21.40;;;;;;;-3.91;87.36;99637.25;5043839;28;20025;-66
2021/12/22 08:59:10;;;;;;;47.10;21.67;;;;;;;-2.95;84.71;99652.53;5044045;28;20019;-67
2021/12/22 09:01:36;;;;;;;37.45;19.13;;;;;;;-2.06;82.34;99646.53;5043716;28;20032;-67
2021/12/22 09:04:02;;;;;;;38.35;20.45;;;;;;;-1.47;80.06;99650.97;5043168;28;20057;-67
2021/12/22 09:06:27;;;;;;;34.90;17.38;;;;;;;-0.93;79.03;99653.31;5043643;28;20088;-67
2021/12/22 09:08:53;;;;;;;35.17;17.25;;;;;;;-0.61;78.12;99652.94;5043616;28;20036;-66
2021/12/22 09:11:20;;;;;;;35.17;18.00;;;;;;;-0.68;78.66;99660.38;5026702;28;20030;-67
2021/12/22 09:13:45;;;;;;;34.95;16.27;;;;;;;-0.54;79.55;99647.19;5023759;28;20368;-67
2021/12/22 09:16:12;;;;;;;30.40;17.80;;;;;;;0.10;77.23;99660.03;5023714;28;20084;-66
2021/12/22 09:18:38;;;;;;;42.63;18.50;;;;;;;0.01;76.30;99645.91;5043094;28;20084;-67
2021/12/22 09:21:08;;;;;;;35.72;17.77;;;;;;;0.31;77.24;99653.06;5043316;28;20029;-67
2021/12/22 09:23:37;;;;;;;39.03;19.20;;;;;;;0.92;75.97;99664.78;5043301;28;20032;-66
2021/12/22 09:26:03;;;;;;;40.97;19.45;;;;;;;1.23;74.34;99665.03;5043587;28;20309;-66
2021/12/22 09:28:28;;;;;;;45.42;25.25;;;;;;;1.37;72.53;99666.34;5043297;28;20051;-66
2021/12/22 09:30:54;;;;;;;52.30;26.50;;;;;;;1.18;71.90;99671.75;5061678;28;20029;-66
2021/12/22 09:33:20;;;;;;;59.83;31.48;;;;;;;0.96;72.88;99662.38;5063155;28;20024;-66
2021/12/22 09:35:48;;;;;;;47.22;23.95;;;;;;;0.59;75.45;99655.81;5063649;28;20071;-66
2021/12/22 09:38:14;;;;;;;36.63;20.05;;;;;;;0.69;76.06;99652.75;5063976;28;20028;-66
2021/12/22 09:40:40;;;;;;;37.70;19.63;;;;;;;0.34;77.36;99637.66;5063970;28;20236;-66
2021/12/22 09:43:07;;;;;;;41.00;19.55;;;;;;;-0.21;80.14;99630.41;5063954;28;20024;-66
2021/12/22 09:45:36;;;;;;;38.50;22.20;;;;;;;-0.59;82.44;99620.28;5063799;28;20067;-66
2021/12/22 09:48:23;;;;;;;46.42;23.75;;;;;;;-0.61;82.49;99621.91;5063877;28;20040;-66
2021/12/22 09:50:55;;;;;;;52.92;24.48;;;;;;;-0.69;82.17;99612.94;5059925;28;20021;-66
2021/12/22 09:53:29;;;;;;;50.53;26.60;;;;;;;-0.81;83.11;99612.47;5044206;28;20017;-66
2021/12/22 09:55:58;;;;;;;59.97;29.27;;;;;;;-0.97;83.98;99607.50;5043894;28;20371;-66
2021/12/22 09:58:24;;;;;;;45.47;23.85;;;;;;;-1.05;84.14;99615.72;5044144;28;20315;-66
2021/12/22 10:00:50;;;;;;;56.47;27.45;;;;;;;-1.41;86.14;99606.44;5044067;28;20032;-66
2021/12/22 10:03:16;;;;;;;55.05;26.00;;;;;;;-1.42;87.40;99603.00;5043781;28;20371;-66
2021/12/22 10:05:43;;;;;;;54.60;24.02;;;;;;;-1.38;88.11;99611.75;5043724;28;20029;-66
2021/12/22 10:08:14;;;;;;;51.33;25.15;;;;;;;-1.46;88.54;99608.84;5043852;28;20378;-66
2021/12/22 10:10:44;;;;;;;53.55;24.65;;;;;;;-1.33;88.90;99608.53;5043756;28;20045;-66
2021/12/22 10:13:15;;;;;;;45.90;22.20;;;;;;;-1.23;89.71;99600.34;5044282;28;20328;-66
2021/12/22 10:15:41;;;;;;;49.17;23.25;;;;;;;-1.32;89.57;99589.66;5043714;28;20025;-66
2021/12/22 10:18:08;;;;;;;48.90;25.33;;;;;;;-1.34;89.28;99585.22;5043952;28;20049;-66
2021/12/22 10:20:34;;;;;;;51.88;25.27;;;;;;;-1.32;89.46;99579.34;5043656;28;20033;-66
2021/12/22 10:23:00;;;;;;;47.35;23.45;;;;;;;-1.21;88.70;99577.19;5043690;28;20328;-66
2021/12/22 10:25:31;;;;;;;46.10;20.75;;;;;;;-1.20;88.44;99573.81;5043476;28;20022;-66
2021/12/22 10:27:59;;;;;;;45.22;20.83;;;;;;;-1.01;88.32;99566.84;5043881;28;20033;-66
2021/12/22 10:30:30;;;;;;;45.08;22.20;;;;;;;-1.12;88.77;99572.41;5058651;28;20092;-66
2021/12/22 10:33:16;;;;;;;42.72;20.67;;;;;;;-1.02;89.41;99577.13;5064152;28;20020;-66
2021/12/22 10:35:44;;;;;;;49.30;21.75;;;;;;;-0.83;89.79;99577.94;5065695;28;20028;-66
2021/12/22 10:38:12;;;;;;;40.38;19.90;;;;;;;-0.74;88.51;99572.25;5067359;28;20028;-66
2021/12/22 10:40:40;;;;;;;47.13;21.17;;;;;;;-0.92;88.67;99567.22;5067347;28;20029;-66
2021/12/22 10:43:07;;;;;;;42.17;20.67;;;;;;;-0.76;89.64;99574.75;5067302;28;20029;-66
2021/12/22 10:45:35;;;;;;;43.92;21.35;;;;;;;-0.87;89.04;99573.47;5067155;28;20025;-66
2021/12/22 10:50:58;;;;;;;45.10;21.85;;;;;;;-0.91;89.31;99568.13;5063229;28;20021;-66
2021/12/22 10:53:24;;;;;;;41.45;21.00;;;;;;;-0.82;89.41;99564.19;5047097;28;20088;-66
2021/12/22 10:55:53;;;;;;;41.05;21.13;;;;;;;-0.83;88.72;99565.00;5047042;28;20032;-66
2021/12/22 10:58:36;;;;;;;40.97;20.80;;;;;;;-0.74;89.20;99573.13;5046981;28;20360;-66
2021/12/22 11:01:10;;;;;;;38.47;19.05;;;;;;;-0.73;89.00;99564.53;5047048;28;20032;-66
2021/12/22 11:03:53;;;;;;;37.33;19.38;;;;;;;-0.74;88.92;99562.78;5047009;28;20092;-66
2021/12/22 11:06:23;;;;;;;40.40;19.98;;;;;;;-0.59;89.02;99563.41;5047120;28;20047;-66
2021/12/22 11:08:53;;;;;;;42.20;19.40;;;;;;;-0.61;88.84;99558.97;5046765;28;20032;-66
2021/12/22 11:11:19;;;;;;;38.00;20.25;;;;;;;-0.50;88.37;99555.97;5046737;28;20199;-66
2021/12/22 11:13:44;;;;;;;45.47;20.80;;;;;;;-0.47;88.20;99538.00;5046693;28;20104;-66
2021/12/22 11:16:13;;;;;;;40.15;19.20;;;;;;;-0.37;88.18;99547.88;5046620;28;20021;-66
2021/12/22 11:18:40;;;;;;;37.88;19.83;;;;;;;-0.32;87.85;99538.56;5046467;28;20045;-66
2021/12/22 11:21:17;;;;;;;40.38;19.50;;;;;;;-0.26;87.78;99540.50;5046603;28;20066;-66
2021/12/22 11:23:42;;;;;;;38.88;19.40;;;;;;;-0.29;86.79;99538.69;5046795;28;20317;-66
2021/12/22 11:26:09;;;;;;;39.50;18.92;;;;;;;-0.27;86.61;99546.50;5046490;28;20025;-66
2021/12/22 11:28:35;;;;;;;44.47;18.63;;;;;;;-0.17;86.19;99544.31;5046459;28;20025;-66
2021/12/22 11:31:03;;;;;;;39.90;18.40;;;;;;;-0.04;85.99;99545.66;5066171;28;20021;-66
2021/12/22 11:33:30;;;;;;;40.60;18.45;;;;;;;-0.10;86.04;99541.13;5066329;28;20067;-66
2021/12/22 11:35:57;;;;;;;34.42;17.92;;;;;;;-0.05;86.13;99539.59;5066278;28;20317;-66
2021/12/22 11:38:23;;;;;;;37.30;18.88;;;;;;;0.09;85.41;99531.47;5066229;28;20221;-66
2021/12/22 11:40:56;;;;;;;37.47;18.88;;;;;;;0.20;85.02;99531.00;5066444;28;20108;-66
2021/12/22 11:43:22;;;;;;;39.42;18.38;;;;;;;0.11;84.20;99516.84;5066418;28;20216;-66